Time;durP1;ratioP1;P1;durP2;ratioP2;P2;SDS_P1;SDS_P2;PMS_P1;PMS_P2;Temp;Humidity;BMP_temperature;BMP_pressure;BME280_temperature;BME280_humidity;BME280_pressure;Samples;Min_cycle;Max_cycle;Signal;HPM_P1;HPM_P2
2021/09/05 00:00:57;;;;;;;;;17.00;13.00;;;;;23.65;59.94;100888.53;5094060;27;45864;-78
2021/09/05 00:03:22;;;;;;;;;16.00;14.00;;;;;23.63;59.54;100880.72;5092962;27;45723;-79
2021/09/05 00:05:48;;;;;;;;;14.75;14.00;;;;;23.59;59.92;100867.91;5093382;27;46406;-78
2021/09/05 00:08:14;;;;;;;;;13.00;12.25;;;;;23.58;59.92;100863.56;5093794;27;46091;-77
2021/09/05 00:10:39;;;;;;;;;14.00;14.00;;;;;23.56;60.10;100858.41;5092293;27;45867;-78
2021/09/05 00:13:05;;;;;;;;;14.75;13.25;;;;;23.61;60.08;100865.88;5097142;27;45730;-77
2021/09/05 00:15:30;;;;;;;;;12.50;12.00;;;;;23.64;60.37;100871.69;5099357;27;47313;-77
2021/09/05 00:17:56;;;;;;;;;15.75;13.25;;;;;23.62;60.25;100868.38;5093951;27;45654;-78
2021/09/05 00:20:21;;;;;;;;;14.00;14.00;;;;;23.68;60.33;100872.97;5089864;27;45769;-78
2021/09/05 00:22:46;;;;;;;;;16.50;14.75;;;;;23.70;60.08;100881.63;5092540;27;45959;-78
2021/09/05 00:25:12;;;;;;;;;18.00;16.25;;;;;23.72;60.02;100889.47;5093383;27;47454;-78
2021/09/05 00:27:38;;;;;;;;;17.25;16.25;;;;;23.70;60.11;100886.97;5093551;27;46850;-78
2021/09/05 00:30:05;;;;;;;;;20.00;17.75;;;;;23.61;60.57;100888.09;5092492;27;45674;-78
2021/09/05 00:32:30;;;;;;;;;19.25;17.00;;;;;23.57;60.61;100883.31;5093123;27;45877;-78
2021/09/05 00:34:55;;;;;;;;;18.25;15.25;;;;;23.60;60.77;100901.66;5093233;27;46330;-79
2021/09/05 00:37:21;;;;;;;;;16.75;15.25;;;;;23.58;60.21;100887.66;5099647;27;45983;-78
2021/09/05 00:39:46;;;;;;;;;16.50;15.25;;;;;23.56;60.53;100895.03;5098405;27;46247;-77
2021/09/05 00:42:11;;;;;;;;;20.00;16.75;;;;;23.53;61.17;100900.75;5093420;27;45667;-77
2021/09/05 00:44:37;;;;;;;;;18.25;16.50;;;;;23.49;61.20;100894.09;5092373;27;46427;-78
2021/09/05 00:47:02;;;;;;;;;20.75;17.25;;;;;23.49;60.92;100902.97;5093046;27;46958;-78
2021/09/05 00:49:28;;;;;;;;;18.75;16.75;;;;;23.47;61.48;100901.50;5083519;27;46159;-78
2021/09/05 00:51:53;;;;;;;;;16.00;15.50;;;;;23.36;61.43;100887.56;5092473;27;45715;-78
2021/09/05 00:54:20;;;;;;;;;16.75;15.50;;;;;23.41;61.02;100887.81;5092607;27;45962;-80
2021/09/05 00:56:45;;;;;;;;;18.00;16.75;;;;;23.41;61.19;100887.00;5061240;27;47278;-79
2021/09/05 00:59:16;;;;;;;;;16.50;16.50;;;;;23.41;61.64;100884.31;5082635;27;45594;-79
2021/09/05 01:01:43;;;;;;;;;17.00;17.00;;;;;23.40;61.12;100879.97;5093086;27;46187;-79
2021/09/05 01:04:09;;;;;;;;;18.00;16.00;;;;;23.40;61.76;100874.63;5074056;27;46536;-78
2021/09/05 01:06:38;;;;;;;;;17.25;14.50;;;;;23.46;61.69;100889.13;5076937;27;46397;-78
2021/09/05 01:09:05;;;;;;;;;16.25;16.25;;;;;23.37;61.35;100864.31;5097120;27;45850;-78
2021/09/05 01:11:34;;;;;;;;;21.00;20.25;;;;;23.47;61.47;100886.28;5092561;27;45758;-78
2021/09/05 01:14:01;;;;;;;;;19.75;19.25;;;;;23.48;61.66;100887.13;5102592;27;45745;-80
2021/09/05 01:16:40;;;;;;;;;21.25;20.50;;;;;23.46;62.17;100881.94;5093191;27;45658;-78
2021/09/05 01:19:15;;;;;;;;;21.50;20.75;;;;;23.43;61.32;100868.91;5087232;27;45945;-78
2021/09/05 01:21:42;;;;;;;;;23.75;22.75;;;;;23.42;61.68;100872.59;5101196;27;45872;-78
2021/09/05 01:24:08;;;;;;;;;26.00;22.25;;;;;23.47;61.95;100875.59;5097252;27;46131;-76
2021/09/05 01:26:37;;;;;;;;;25.25;24.00;;;;;23.41;62.36;100871.78;5097822;27;46446;-79
2021/09/05 01:29:04;;;;;;;;;24.25;23.50;;;;;23.47;61.86;100882.78;5097260;27;45800;-77
2021/09/05 01:31:50;;;;;;;;;26.50;23.25;;;;;23.49;62.08;100892.25;5097232;27;45465;-82
2021/09/05 01:34:19;;;;;;;;;23.75;21.75;;;;;23.47;61.71;100886.28;5096815;27;47329;-78
2021/09/05 01:36:45;;;;;;;;;28.75;26.00;;;;;23.44;61.63;100886.59;5099415;27;46138;-81
2021/09/05 01:39:13;;;;;;;;;24.75;22.00;;;;;23.49;61.61;100900.28;5099764;27;45702;-80
2021/09/05 01:41:40;;;;;;;;;27.50;24.25;;;;;23.47;61.99;100899.66;5097631;27;45792;-78
2021/09/05 01:44:11;;;;;;;;;25.00;23.50;;;;;23.46;61.63;100903.34;5097453;27;45634;-82
2021/09/05 01:46:37;;;;;;;;;28.25;27.25;;;;;23.40;61.79;100896.84;5087947;27;45645;-79
2021/09/05 01:49:04;;;;;;;;;25.00;23.00;;;;;23.30;62.20;100879.44;5098094;27;45888;-78
2021/09/05 01:51:29;;;;;;;;;29.00;28.25;;;;;23.39;62.24;100900.53;5099096;27;45512;-77
2021/09/05 01:53:55;;;;;;;;;24.75;23.00;;;;;23.37;62.10;100907.91;5095914;27;46530;-78
2021/09/05 01:56:20;;;;;;;;;26.50;24.75;;;;;23.35;62.23;100909.94;5096784;27;46128;-78
2021/09/05 01:58:46;;;;;;;;;27.75;26.25;;;;;23.35;61.88;100906.44;5096897;27;46078;-80
2021/09/05 02:01:11;;;;;;;;;29.25;26.75;;;;;23.35;61.84;100909.13;5078677;27;45687;-78
2021/09/05 02:03:37;;;;;;;;;26.00;22.75;;;;;23.34;62.73;100912.81;5095514;27;45615;-78
2021/09/05 02:06:02;;;;;;;;;26.00;25.75;;;;;23.30;61.94;100898.16;5095861;27;47160;-78
2021/09/05 02:08:28;;;;;;;;;23.00;22.75;;;;;23.30;62.10;100906.16;5095666;27;45891;-77
2021/09/05 02:10:53;;;;;;;;;23.00;22.50;;;;;23.30;62.31;100895.47;5077803;27;45876;-78
2021/09/05 02:13:18;;;;;;;;;23.75;21.00;;;;;23.34;62.59;100904.78;5094939;27;46354;-76
2021/09/05 02:15:44;;;;;;;;;21.00;20.25;;;;;23.31;61.98;100899.81;5095330;27;46427;-77
2021/09/05 02:18:09;;;;;;;;;22.50;21.00;;;;;23.33;62.36;100903.94;5097167;27;45630;-79
2021/09/05 02:20:35;;;;;;;;;22.50;21.75;;;;;23.31;62.02;100899.81;5100763;27;45651;-79
2021/09/05 02:23:01;;;;;;;;;24.50;23.00;;;;;23.34;62.12;100908.28;5102377;27;45613;-81
2021/09/05 02:25:26;;;;;;;;;23.00;21.75;;;;;23.35;61.74;100904.59;5102401;27;46304;-78
2021/09/05 02:27:52;;;;;;;;;27.25;25.00;;;;;23.34;62.17;100897.59;5104584;27;45772;-78
2021/09/05 02:30:17;;;;;;;;;25.00;23.25;;;;;23.37;61.51;100904.44;5099694;27;45617;-77
2021/09/05 02:32:43;;;;;;;;;23.50;21.50;;;;;23.38;61.92;100895.38;5099367;27;47161;-77
2021/09/05 02:35:10;;;;;;;;;23.50;21.50;;;;;23.40;62.06;100896.03;5094044;27;45768;-77
2021/09/05 02:37:37;;;;;;;;;21.00;21.00;;;;;23.36;61.90;100890.22;5095325;27;45596;-78
2021/09/05 02:40:04;;;;;;;;;24.25;21.00;;;;;23.31;61.91;100886.44;5095352;27;45785;-78
2021/09/05 02:42:30;;;;;;;;;20.75;19.50;;;;;23.38;61.51;100898.88;5095614;27;45626;-80
2021/09/05 02:44:55;;;;;;;;;19.25;18.50;;;;;23.40;61.69;100902.22;5095250;27;46543;-79
2021/09/05 02:47:21;;;;;;;;;19.50;19.25;;;;;23.38;62.13;100896.19;5095053;27;45898;-79
2021/09/05 02:49:46;;;;;;;;;23.75;21.25;;;;;23.42;61.83;100902.03;5094978;27;45666;-78
2021/09/05 02:52:11;;;;;;;;;21.00;19.25;;;;;23.42;61.15;100902.88;5097162;27;45680;-81
2021/09/05 02:54:38;;;;;;;;;22.75;20.50;;;;;23.38;61.94;100898.03;5104552;27;46027;-78
2021/09/05 02:57:04;;;;;;;;;23.00;21.75;;;;;23.39;61.35;100903.22;5103058;27;45758;-78
2021/09/05 02:59:29;;;;;;;;;19.50;18.00;;;;;23.39;61.67;100895.19;5097678;27;45808;-80
2021/09/05 03:01:55;;;;;;;;;19.25;17.75;;;;;23.39;61.67;100902.38;5098825;27;46374;-78
2021/09/05 03:04:20;;;;;;;;;19.00;17.75;;;;;23.41;61.37;100898.53;5094059;27;46397;-76
2021/09/05 03:06:45;;;;;;;;;21.25;19.75;;;;;23.41;61.37;100905.72;5095746;27;45619;-78
2021/09/05 03:09:11;;;;;;;;;20.25;18.75;;;;;23.41;61.54;100903.88;5095943;27;45690;-77
2021/09/05 03:11:36;;;;;;;;;19.50;18.50;;;;;23.36;61.14;100900.91;5095088;27;46325;-78
2021/09/05 03:14:01;;;;;;;;;21.00;19.25;;;;;23.40;61.08;100899.53;5104500;27;45784;-79
2021/09/05 03:16:27;;;;;;;;;17.75;17.50;;;;;23.41;61.19;100898.53;5088798;27;45940;-79
2021/09/05 03:18:52;;;;;;;;;19.00;17.75;;;;;23.36;61.27;100894.75;5092162;27;45662;-79
2021/09/05 03:21:18;;;;;;;;;19.75;18.25;;;;;23.40;61.17;100902.22;5093682;27;45858;-80
2021/09/05 03:23:43;;;;;;;;;20.25;19.25;;;;;23.43;61.59;100906.34;5093340;27;46091;-79
2021/09/05 03:26:09;;;;;;;;;17.50;15.75;;;;;23.39;61.01;100894.34;5094544;27;45850;-78
2021/09/05 03:28:35;;;;;;;;;20.25;18.50;;;;;23.43;60.79;100907.16;5094393;27;45709;-79
2021/09/05 03:31:00;;;;;;;;;20.00;18.75;;;;;23.41;61.48;100898.53;5076295;27;47476;-78
2021/09/05 03:33:26;;;;;;;;;19.75;18.75;;;;;23.38;60.85;100898.88;5093190;27;46011;-78
2021/09/05 03:35:52;;;;;;;;;19.75;18.50;;;;;23.43;60.77;100896.47;5092200;27;45620;-78
2021/09/05 03:38:18;;;;;;;;;18.25;17.25;;;;;23.36;60.84;100886.72;5094128;27;45751;-77
2021/09/05 03:40:43;;;;;;;;;18.75;18.00;;;;;23.44;60.57;100898.13;5095487;27;45907;-78
2021/09/05 03:43:09;;;;;;;;;19.50;18.75;;;;;23.45;60.77;100893.63;5096373;27;45663;-78
2021/09/05 03:45:35;;;;;;;;;18.00;17.00;;;;;23.42;60.96;100897.50;5097344;27;45767;-79
2021/09/05 03:48:00;;;;;;;;;18.75;16.25;;;;;23.43;60.71;100893.78;5100211;27;45764;-81
2021/09/05 03:50:26;;;;;;;;;19.50;16.50;;;;;23.38;60.63;100885.50;5099682;27;45830;-78
2021/09/05 03:52:51;;;;;;;;;16.50;16.50;;;;;23.35;60.73;100883.22;5098832;27;46561;-80
2021/09/05 03:55:16;;;;;;;;;20.50;19.00;;;;;23.39;60.71;100889.00;5097068;27;45764;-79
2021/09/05 03:57:42;;;;;;;;;18.00;17.50;;;;;23.43;60.58;100890.28;5095131;27;45912;-79
2021/09/05 04:00:08;;;;;;;;;15.00;13.75;;;;;23.42;60.66;100894.00;5094535;27;47610;-79
2021/09/05 04:02:33;;;;;;;;;17.75;16.25;;;;;23.40;60.79;100888.84;5093416;27;47378;-78
2021/09/05 04:04:58;;;;;;;;;20.75;17.75;;;;;23.37;60.50;100899.88;5075367;27;46050;-82
2021/09/05 04:07:24;;;;;;;;;20.25;17.25;;;;;23.37;60.80;100899.09;5093988;27;45629;-77
2021/09/05 04:12:33;;;;;;;;;16.50;14.75;;;;;23.26;59.99;100883.50;5092132;27;46065;-78
2021/09/05 04:14:59;;;;;;;;;15.00;13.75;;;;;23.32;60.03;100899.59;5103205;27;45592;-79
2021/09/05 04:17:24;;;;;;;;;19.25;15.75;;;;;23.29;60.34;100905.34;5074896;27;46064;-77
2021/09/05 04:19:49;;;;;;;;;16.00;14.75;;;;;23.28;60.26;100900.16;5093402;27;45705;-78
2021/09/05 04:22:15;;;;;;;;;15.25;13.75;;;;;23.27;60.36;100899.34;5093492;27;46277;-79
2021/09/05 04:24:40;;;;;;;;;17.50;15.50;;;;;23.29;60.13;100900.00;5094732;27;45688;-76
2021/09/05 04:27:06;;;;;;;;;16.25;15.00;;;;;23.24;60.37;100894.38;5100270;27;45587;-78
2021/09/05 04:29:31;;;;;;;;;13.25;13.00;;;;;23.25;59.99;100901.38;5098127;27;45704;-78
2021/09/05 04:31:57;;;;;;;;;18.50;17.50;;;;;23.27;60.44;100898.50;5092323;27;45668;-77
2021/09/05 04:34:22;;;;;;;;;16.25;13.75;;;;;23.20;60.39;100898.44;5098899;27;45668;-77
2021/09/05 04:36:48;;;;;;;;;14.75;14.75;;;;;23.19;60.02;100899.44;5076253;27;45600;-77
2021/09/05 04:39:13;;;;;;;;;19.50;16.50;;;;;23.24;60.58;100917.59;5093618;27;46628;-78
2021/09/05 04:41:38;;;;;;;;;16.50;16.50;;;;;23.21;60.47;100917.97;5092058;27;47209;-78
2021/09/05 04:44:04;;;;;;;;;18.25;17.25;;;;;23.23;60.48;100921.28;5074402;27;46046;-78
2021/09/05 04:46:29;;;;;;;;;17.50;17.25;;;;;23.22;60.46;100922.28;5104261;27;45618;-77
2021/09/05 04:48:55;;;;;;;;;17.00;16.75;;;;;23.17;60.40;100920.16;5094951;27;45515;-78
2021/09/05 04:51:20;;;;;;;;;16.50;16.25;;;;;23.14;60.38;100919.72;5096371;27;45614;-79
2021/09/05 04:53:45;;;;;;;;;15.25;14.75;;;;;23.19;60.51;100926.19;5096984;27;45741;-77
2021/09/05 04:56:14;;;;;;;;;20.75;19.00;;;;;23.17;60.18;100933.53;5099678;27;46027;-80
2021/09/05 04:58:39;;;;;;;;;21.00;20.50;;;;;23.16;59.88;100931.88;5097652;27;45665;-79
2021/09/05 05:01:05;;;;;;;;;27.50;25.50;;;;;23.13;60.08;100934.94;5097923;27;46141;-81
2021/09/05 05:03:30;;;;;;;;;24.50;24.50;;;;;23.11;60.54;100933.44;5098415;27;45836;-79
2021/09/05 05:05:55;;;;;;;;;25.25;22.50;;;;;23.13;60.57;100942.13;5099969;27;45720;-79
2021/09/05 05:08:21;;;;;;;;;23.00;19.50;;;;;23.09;60.52;100940.81;5093322;27;46516;-80
2021/09/05 05:10:46;;;;;;;;;17.75;17.75;;;;;23.11;60.05;100942.28;5096594;27;46113;-77
2021/09/05 05:13:11;;;;;;;;;19.75;17.75;;;;;23.11;60.56;100942.28;5098292;27;45625;-80
2021/09/05 05:15:37;;;;;;;;;17.50;16.50;;;;;23.04;60.11;100938.69;5099430;27;45554;-79
2021/09/05 05:18:05;;;;;;;;;24.75;21.75;;;;;23.06;60.36;100943.84;5098212;27;47300;-78
2021/09/05 05:20:30;;;;;;;;;22.25;19.00;;;;;23.09;60.60;100956.84;5094572;27;45725;-78
2021/09/05 05:22:56;;;;;;;;;17.50;16.25;;;;;23.04;60.00;100954.75;5100081;27;45699;-78
2021/09/05 05:25:21;;;;;;;;;18.25;18.00;;;;;23.11;60.43;100969.00;5093592;27;45832;-78
2021/09/05 05:27:47;;;;;;;;;20.50;20.00;;;;;23.10;60.34;100969.22;5096353;27;46018;-78
2021/09/05 05:30:13;;;;;;;;;21.50;16.00;;;;;23.11;60.25;100971.69;5102187;27;46014;-82
2021/09/05 05:32:39;;;;;;;;;20.50;19.50;;;;;23.08;60.68;100963.22;5092267;27;45854;-80
2021/09/05 05:35:06;;;;;;;;;19.25;17.25;;;;;22.99;60.65;100951.78;5074201;27;45686;-81
2021/09/05 05:37:32;;;;;;;;;19.75;17.75;;;;;23.11;60.58;100968.19;5092485;27;45992;-77
2021/09/05 05:39:57;;;;;;;;;16.50;16.50;;;;;23.09;60.73;100971.06;5097447;27;45718;-77
2021/09/05 05:42:23;;;;;;;;;18.50;16.75;;;;;23.06;60.46;100965.22;5080218;27;45753;-78
2021/09/05 05:44:48;;;;;;;;;20.00;18.25;;;;;23.06;60.07;100965.22;5091931;27;45887;-79
2021/09/05 05:47:14;;;;;;;;;17.75;17.25;;;;;23.07;60.36;100966.91;5096620;27;45853;-80
2021/09/05 05:49:43;;;;;;;;;21.00;18.75;;;;;23.07;60.36;100972.25;5094450;27;45919;-77
2021/09/05 05:52:08;;;;;;;;;17.50;17.00;;;;;23.04;60.47;100970.78;5090450;27;46107;-82
2021/09/05 05:54:34;;;;;;;;;20.00;18.50;;;;;23.05;60.58;100975.09;5091221;27;45678;-82
2021/09/05 05:57:00;;;;;;;;;15.00;15.00;;;;;23.09;59.92;100980.91;5093474;27;46461;-83
2021/09/05 05:59:25;;;;;;;;;18.75;15.75;;;;;23.08;60.04;100984.59;5102456;27;46460;-82
2021/09/05 06:01:51;;;;;;;;;20.00;17.75;;;;;23.07;60.39;100975.75;5092554;27;45819;-79
2021/09/05 06:04:16;;;;;;;;;18.00;17.00;;;;;23.08;60.61;100981.94;5090464;27;45567;-81
2021/09/05 06:06:42;;;;;;;;;17.25;17.25;;;;;23.07;60.33;100982.94;5098397;27;45756;-81
2021/09/05 06:09:07;;;;;;;;;17.25;16.50;;;;;23.06;60.62;100989.28;5092842;27;46105;-78
2021/09/05 06:11:33;;;;;;;;;19.75;17.00;;;;;23.00;60.37;100977.47;5095401;27;46084;-79
2021/09/05 06:13:58;;;;;;;;;15.25;14.00;;;;;23.03;59.98;100987.81;5097028;27;45727;-82
2021/09/05 06:16:23;;;;;;;;;21.50;19.25;;;;;23.07;60.79;100996.28;5096264;27;47194;-82
2021/09/05 06:18:49;;;;;;;;;17.50;16.50;;;;;23.07;60.06;101005.16;5095210;27;46238;-80
2021/09/05 06:21:14;;;;;;;;;17.75;17.75;;;;;23.07;60.57;100997.13;5094070;27;46688;-78
2021/09/05 06:23:40;;;;;;;;;20.00;19.25;;;;;23.05;60.22;100995.66;5085205;27;45571;-78
2021/09/05 06:26:05;;;;;;;;;18.00;17.75;;;;;23.07;60.50;101001.66;5100137;27;45629;-78
2021/09/05 06:28:30;;;;;;;;;18.75;18.25;;;;;23.09;60.40;101005.81;5108772;27;45603;-78
2021/09/05 06:30:56;;;;;;;;;18.50;17.50;;;;;23.10;60.15;101020.00;5109362;27;45743;-81
2021/09/05 06:33:21;;;;;;;;;19.00;17.25;;;;;23.08;60.24;101014.84;5096267;27;45536;-84
2021/09/05 06:35:47;;;;;;;;;19.50;17.25;;;;;23.11;60.06;101013.63;5107150;27;45714;-76
2021/09/05 06:38:12;;;;;;;;;21.25;19.25;;;;;23.07;60.25;101015.00;5114942;27;46270;-79
2021/09/05 06:40:37;;;;;;;;;20.75;20.00;;;;;23.13;60.41;101022.31;5102170;27;45640;-80
2021/09/05 06:43:03;;;;;;;;;20.50;18.75;;;;;23.01;60.57;101008.53;5100018;27;45684;-78
2021/09/05 06:45:28;;;;;;;;;20.00;18.50;;;;;23.13;60.72;101031.16;5109335;27;46564;-81
2021/09/05 06:47:54;;;;;;;;;22.50;16.75;;;;;23.12;60.37;101026.00;5101452;27;46285;-78
2021/09/05 06:50:19;;;;;;;;;17.75;17.25;;;;;23.12;60.46;101034.84;5095357;27;45600;-81
2021/09/05 06:52:45;;;;;;;;;19.00;16.75;;;;;23.15;60.52;101031.84;5094999;27;45714;-78
2021/09/05 06:55:10;;;;;;;;;18.75;18.00;;;;;23.13;60.19;101033.84;5099585;27;46311;-79
2021/09/05 06:57:36;;;;;;;;;18.25;17.00;;;;;23.10;60.29;101033.38;5109865;27;46044;-78
2021/09/05 07:00:03;;;;;;;;;18.50;17.25;;;;;23.19;60.63;101041.16;5096321;27;45893;-82
2021/09/05 07:02:28;;;;;;;;;20.50;19.00;;;;;23.17;60.33;101045.00;5093532;27;45788;-78
2021/09/05 07:04:53;;;;;;;;;22.00;20.00;;;;;23.16;60.50;101044.16;5092592;27;45833;-78
2021/09/05 07:07:19;;;;;;;;;15.25;14.25;;;;;23.18;60.47;101058.19;5093373;27;46316;-83
2021/09/05 07:09:44;;;;;;;;;19.75;17.50;;;;;23.25;60.28;101059.16;5090494;27;46907;-82
2021/09/05 07:12:10;;;;;;;;;20.00;19.00;;;;;23.26;60.16;101060.81;5092122;27;45929;-81
2021/09/05 07:14:35;;;;;;;;;17.25;16.25;;;;;23.27;59.81;101061.63;5091479;27;46670;-78
2021/09/05 07:17:00;;;;;;;;;19.75;16.50;;;;;23.25;59.99;101053.78;5087626;27;46386;-79
2021/09/05 07:19:26;;;;;;;;;16.00;16.00;;;;;23.28;60.36;101065.97;5090570;27;45672;-80
2021/09/05 07:21:51;;;;;;;;;18.25;17.50;;;;;23.24;60.28;101054.81;5090058;27;45876;-78
2021/09/05 07:24:17;;;;;;;;;16.25;16.00;;;;;23.26;59.82;101057.31;5088548;27;45780;-78
2021/09/05 07:26:42;;;;;;;;;17.25;16.75;;;;;23.28;60.40;101068.63;5087246;27;47902;-79
2021/09/05 07:29:07;;;;;;;;;19.00;17.00;;;;;23.18;59.83;101044.81;5088769;27;45744;-78
2021/09/05 07:31:33;;;;;;;;;19.00;16.00;;;;;23.25;60.09;101056.47;5088665;27;47122;-78
2021/09/05 07:33:59;;;;;;;;;17.75;17.25;;;;;23.31;60.36;101068.28;5087602;27;45957;-90
2021/09/05 07:36:24;;;;;;;;;17.00;16.75;;;;;23.23;60.25;101057.66;5087372;27;48471;-80
2021/09/05 07:38:51;;;;;;;;;22.50;20.00;;;;;23.31;59.59;101076.31;5089069;27;45793;-78
2021/09/05 07:41:16;;;;;;;;;19.50;17.50;;;;;23.32;59.61;101076.09;5087982;27;46050;-83
2021/09/05 07:43:42;;;;;;;;;20.25;18.25;;;;;23.31;60.02;101068.28;5089072;27;46381;-78
2021/09/05 07:46:07;;;;;;;;;20.00;19.00;;;;;23.30;60.02;101064.78;5079428;27;48527;-78
2021/09/05 07:48:33;;;;;;;;;18.75;18.00;;;;;23.33;59.98;101077.78;5088685;27;47024;-83
2021/09/05 07:50:58;;;;;;;;;19.50;18.00;;;;;23.34;59.80;101073.25;5093889;27;46125;-78
2021/09/05 07:53:23;;;;;;;;;18.00;18.00;;;;;23.38;59.84;101082.59;5094886;27;46300;-79
2021/09/05 07:55:49;;;;;;;;;20.75;18.25;;;;;23.33;59.59;101079.63;5099300;27;46104;-79
2021/09/05 07:58:14;;;;;;;;;18.25;16.00;;;;;23.38;60.11;101085.25;5096424;27;45476;-79
2021/09/05 08:00:40;;;;;;;;;18.75;17.50;;;;;23.41;59.59;101087.59;5096120;27;45925;-78
2021/09/05 08:03:05;;;;;;;;;20.50;17.25;;;;;23.33;59.41;101082.28;5096791;27;46234;-83
2021/09/05 08:05:31;;;;;;;;;18.00;16.00;;;;;23.28;59.52;101066.78;5092719;27;45650;-77
2021/09/05 08:07:56;;;;;;;;;18.50;18.00;;;;;23.41;59.39;101096.44;5095026;27;45788;-80
2021/09/05 08:10:22;;;;;;;;;17.50;17.25;;;;;23.36;59.49;101088.13;5096174;27;45837;-80
2021/09/05 08:12:47;;;;;;;;;17.25;16.25;;;;;23.40;59.29;101096.63;5092324;27;46416;-78
2021/09/05 08:15:13;;;;;;;;;17.00;16.50;;;;;23.39;59.50;101101.13;5098461;27;45789;-78
2021/09/05 08:17:38;;;;;;;;;19.25;17.00;;;;;23.38;59.36;101091.44;5094945;27;46379;-80
2021/09/05 08:20:05;;;;;;;;;20.00;18.00;;;;;23.47;59.57;101110.13;5095365;27;45629;-79
2021/09/05 08:22:30;;;;;;;;;18.00;16.50;;;;;23.46;59.36;101109.31;5092849;27;46395;-79
2021/09/05 08:24:55;;;;;;;;;17.00;15.75;;;;;23.47;59.26;101110.13;5092568;27;46261;-79
2021/09/05 08:27:21;;;;;;;;;16.75;14.00;;;;;23.43;59.02;101102.44;5092963;27;46522;-78
2021/09/05 08:30:01;;;;;;;;;16.25;14.00;;;;;23.42;59.46;101106.13;5092907;27;45761;-79
2021/09/05 08:32:26;;;;;;;;;19.25;17.50;;;;;23.54;58.93;101116.41;5091371;27;46942;-79
2021/09/05 08:34:55;;;;;;;;;13.75;13.75;;;;;23.53;59.12;101115.59;5090767;27;45725;-78
2021/09/05 08:37:33;;;;;;;;;17.50;15.50;;;;;23.59;59.35;101114.06;5091949;27;46116;-79
2021/09/05 08:39:58;;;;;;;;;15.25;15.00;;;;;23.59;58.89;101114.06;5092299;27;45705;-79
2021/09/05 08:42:24;;;;;;;;;16.75;15.25;;;;;23.65;59.03;101124.00;5091610;27;47194;-79
2021/09/05 08:44:52;;;;;;;;;14.25;13.50;;;;;23.68;59.37;101118.31;5093373;27;45653;-79
2021/09/05 08:47:18;;;;;;;;;17.50;16.00;;;;;23.65;58.93;101114.13;5092962;27;45927;-80
2021/09/05 08:49:45;;;;;;;;;17.00;15.50;;;;;23.67;59.16;101116.63;5092467;27;45773;-79
2021/09/05 08:52:11;;;;;;;;;15.50;14.25;;;;;23.72;58.45;101115.09;5095760;27;47464;-80
2021/09/05 08:54:39;;;;;;;;;16.25;13.75;;;;;23.76;59.09;101120.88;5092369;27;46038;-80
2021/09/05 08:57:05;;;;;;;;;15.50;15.00;;;;;23.74;58.78;101107.72;5092130;27;45601;-80
2021/09/05 08:59:49;;;;;;;;;16.25;15.00;;;;;23.81;58.43;101116.66;5091899;27;45845;-79
2021/09/05 09:02:14;;;;;;;;;16.00;14.75;;;;;23.81;58.68;101115.81;5083033;27;46354;-79
2021/09/05 09:04:42;;;;;;;;;16.25;16.00;;;;;23.82;58.51;101118.31;5092592;27;46459;-79
2021/09/05 09:07:13;;;;;;;;;20.00;16.75;;;;;23.92;58.22;101133.28;5102928;27;46257;-79
2021/09/05 09:09:51;;;;;;;;;15.75;14.00;;;;;23.94;58.13;101140.13;5093468;27;46007;-79
2021/09/05 09:12:16;;;;;;;;;15.50;15.25;;;;;23.96;58.24;101131.91;5084608;27;47541;-79
2021/09/05 09:14:47;;;;;;;;;14.00;12.00;;;;;23.96;58.14;101124.72;5091239;27;47216;-79
2021/09/05 09:17:15;;;;;;;;;15.50;13.50;;;;;24.02;58.24;101137.34;5091061;27;45623;-79
2021/09/05 09:19:46;;;;;;;;;16.00;14.75;;;;;24.05;58.70;101137.00;5093513;27;45628;-80
2021/09/05 09:22:17;;;;;;;;;15.25;13.75;;;;;24.08;58.51;101141.13;5091820;27;46281;-79
2021/09/05 09:24:43;;;;;;;;;15.75;14.50;;;;;24.11;58.24;101136.25;5093526;27;45728;-78
2021/09/05 09:27:10;;;;;;;;;15.00;14.50;;;;;24.14;58.39;101135.88;5097628;27;45859;-79
2021/09/05 09:29:36;;;;;;;;;13.25;12.50;;;;;24.01;57.94;101110.78;5092570;27;45659;-82
2021/09/05 09:32:08;;;;;;;;;15.75;14.25;;;;;24.13;57.98;101123.50;5092632;27;45603;-82
2021/09/05 09:34:41;;;;;;;;;16.00;13.25;;;;;24.23;58.11;101136.69;5093672;27;47250;-82
2021/09/05 09:37:17;;;;;;;;;21.25;16.00;;;;;24.29;58.14;101132.44;5099090;27;45638;-81
2021/09/05 09:39:56;;;;;;;;;14.50;13.50;;;;;24.33;58.21;101139.91;5092258;27;45762;-80
2021/09/05 09:42:38;;;;;;;;;18.00;15.25;;;;;24.38;58.40;101133.97;5086747;27;46294;-79
2021/09/05 09:45:10;;;;;;;;;14.00;14.00;;;;;24.41;58.26;101139.78;5098761;27;45710;-81
2021/09/05 09:47:44;;;;;;;;;15.00;14.75;;;;;24.45;57.87;101134.91;5096605;27;45583;-84
2021/09/05 09:50:15;;;;;;;;;15.50;13.75;;;;;24.50;57.69;101140.53;5095442;27;45721;-82
2021/09/05 09:52:41;;;;;;;;;14.25;13.25;;;;;24.54;57.77;101141.81;5095131;27;46500;-83
2021/09/05 09:55:07;;;;;;;;;17.00;16.00;;;;;24.57;57.75;101133.38;5097075;27;45681;-77
2021/09/05 09:57:33;;;;;;;;;15.00;14.75;;;;;24.62;57.56;101126.44;5097710;27;45535;-82
2021/09/05 10:00:00;;;;;;;;;14.00;14.00;;;;;24.61;57.75;101127.50;5101653;27;45925;-84
2021/09/05 10:02:27;;;;;;;;;21.50;19.00;;;;;24.68;57.80;101135.59;5103735;27;45950;-78
2021/09/05 10:04:54;;;;;;;;;18.00;16.00;;;;;24.71;57.38;101132.56;5098101;27;46434;-79
2021/09/05 10:07:22;;;;;;;;;18.00;16.25;;;;;24.74;57.22;101134.84;5098196;27;45762;-80
2021/09/05 10:09:48;;;;;;;;;14.75;14.00;;;;;24.75;57.48;101125.78;5097418;27;46054;-77
2021/09/05 10:12:15;;;;;;;;;17.25;15.25;;;;;24.83;57.35;101138.25;5099797;27;46929;-79
2021/09/05 10:14:52;;;;;;;;;16.50;15.75;;;;;24.86;57.27;101135.19;5105005;27;46271;-77
2021/09/05 10:17:19;;;;;;;;;16.00;14.75;;;;;24.86;57.19;101125.28;5100926;27;45799;-82
2021/09/05 10:19:46;;;;;;;;;17.00;16.00;;;;;24.90;56.63;101133.81;5098694;27;45580;-86
2021/09/05 10:22:12;;;;;;;;;16.75;15.25;;;;;24.94;57.12;101127.88;5095091;27;46489;-74
2021/09/05 10:24:44;;;;;;;;;16.25;15.00;;;;;24.99;57.08;101124.66;5095539;27;46432;-88
2021/09/05 10:27:10;;;;;;;;;16.00;16.00;;;;;25.02;56.98;101121.56;5079300;27;45873;-89
2021/09/05 10:29:36;;;;;;;;;16.00;16.00;;;;;25.04;56.90;101122.22;5094276;27;45947;-87
2021/09/05 10:32:07;;;;;;;;;17.75;16.25;;;;;25.07;56.87;101119.16;5094721;27;46484;-81
2021/09/05 10:34:37;;;;;;;;;17.75;16.00;;;;;25.12;56.74;101130.13;5102677;27;45630;-85
2021/09/05 10:37:09;;;;;;;;;15.00;13.00;;;;;25.14;56.79;101113.84;5102471;27;45571;-87
2021/09/05 10:39:35;;;;;;;;;17.75;16.00;;;;;25.23;56.31;101126.13;5101858;27;45614;-79
2021/09/05 10:42:00;;;;;;;;;14.50;14.00;;;;;25.26;56.42;101121.22;5099603;27;46466;-85
2021/09/05 10:44:26;;;;;;;;;15.00;14.75;;;;;25.29;56.20;101119.97;5105910;27;45982;-81
2021/09/05 10:46:55;;;;;;;;;14.75;14.50;;;;;25.20;55.94;101097.84;5103872;27;45527;-83
2021/09/05 10:49:41;;;;;;;;;15.50;14.25;;;;;25.36;56.12;101115.50;5102590;27;45710;-86
2021/09/05 10:52:07;;;;;;;;;14.75;13.25;;;;;25.38;55.87;101124.19;5089798;27;48715;-82
2021/09/05 10:54:43;;;;;;;;;14.50;14.50;;;;;25.39;55.57;101115.94;5093130;27;46440;-86
2021/09/05 10:57:08;;;;;;;;;13.75;13.25;;;;;25.41;55.99;101113.09;5095302;27;45699;-81
2021/09/05 10:59:35;;;;;;;;;14.50;14.50;;;;;25.46;55.07;101118.69;5100827;27;45598;-81
2021/09/05 11:02:02;;;;;;;;;14.25;13.00;;;;;25.51;55.52;101108.22;5104897;27;46480;-81
2021/09/05 11:04:41;;;;;;;;;13.00;11.75;;;;;25.48;55.40;101105.91;5105528;27;45941;-77
2021/09/05 11:07:28;;;;;;;;;13.75;13.00;;;;;25.59;55.23;101116.13;5082485;28;45683;-86
2021/09/05 11:09:54;;;;;;;;;15.50;14.50;;;;;25.59;55.26;101104.59;5082124;28;45653;-78